Time;durP1;ratioP1;P1;durP2;ratioP2;P2;SDS_P1;SDS_P2;PMS_P1;PMS_P2;Temp;Humidity;BMP_temperature;BMP_pressure;BME280_temperature;BME280_humidity;BME280_pressure;Samples;Min_cycle;Max_cycle;Signal;HPM_P1;HPM_P2
2022/06/23 00:01:22;;;;;;;;;;;20.10;54.90;;;;;;5144368;27;19927;-46
2022/06/23 00:03:52;;;;;;;;;;;19.90;54.90;;;;;;5169995;27;19927;-47
2022/06/23 00:06:22;;;;;;;;;;;20.30;59.50;;;;;;5162798;27;20013;-46
2022/06/23 00:08:48;;;;;;;;;;;20.90;63.90;;;;;;5163829;27;20328;-46
2022/06/23 00:11:21;;;;;;;;;;;21.60;65.40;;;;;;5167380;27;19927;-46
2022/06/23 00:13:47;;;;;;;;;;;21.30;62.40;;;;;;5144848;27;19927;-48
2022/06/23 00:16:31;;;;;;;;;;;20.70;59.70;;;;;;5163410;27;19930;-48
2022/06/23 00:18:56;;;;;;;;;;;20.30;57.70;;;;;;5169776;27;19933;-45
2022/06/23 00:21:24;;;;;;;;;;;20.10;56.10;;;;;;5163818;27;20335;-45
2022/06/23 00:23:51;;;;;;;;;;;19.90;55.60;;;;;;5147474;27;19986;-53
2022/06/23 00:26:21;;;;;;;;;;;19.70;55.30;;;;;;5167926;27;19923;-47
2022/06/23 00:28:50;;;;;;;;;;;20.30;60.90;;;;;;5162051;27;19923;-52
2022/06/23 00:31:39;;;;;;;;;;;21.00;65.00;;;;;;5168564;27;19923;-45
2022/06/23 00:34:13;;;;;;;;;;;21.70;65.60;;;;;;5154834;27;20013;-46
2022/06/23 00:36:41;;;;;;;;;;;21.00;61.30;;;;;;5163579;27;20407;-48
2022/06/23 00:39:18;;;;;;;;;;;20.70;58.70;;;;;;5169029;27;20014;-45
2022/06/23 00:41:44;;;;;;;;;;;20.20;57.60;;;;;;5148038;27;20287;-46
2022/06/23 00:44:13;;;;;;;;;;;20.00;56.30;;;;;;5163433;27;19979;-47
2022/06/23 00:46:47;;;;;;;;;;;20.00;55.50;;;;;;5148938;27;19922;-46
2022/06/23 00:49:15;;;;;;;;;;;19.80;54.90;;;;;;5162116;27;20505;-46
2022/06/23 00:51:48;;;;;;;;;;;20.00;54.40;;;;;;5144432;27;19929;-47
2022/06/23 00:54:19;;;;;;;;;;;20.10;53.90;;;;;;5168599;27;19931;-47
2022/06/23 00:56:54;;;;;;;;;;;19.90;55.90;;;;;;5144540;27;19945;-50
2022/06/23 00:59:26;;;;;;;;;;;20.70;62.40;;;;;;5144745;27;20722;-47
2022/06/23 01:01:54;;;;;;;;;;;21.30;64.80;;;;;;5168254;27;19923;-46
2022/06/23 01:04:22;;;;;;;;;;;21.80;65.20;;;;;;5162065;27;19922;-53
2022/06/23 01:06:50;;;;;;;;;;;21.20;61.50;;;;;;5142713;27;19937;-47
2022/06/23 01:09:23;;;;;;;;;;;20.70;59.30;;;;;;5167955;27;19948;-45
2022/06/23 01:11:58;;;;;;;;;;;20.30;57.40;;;;;;5143949;27;19923;-46
2022/06/23 01:14:26;;;;;;;;;;;20.20;56.10;;;;;;5144425;27;20093;-44
2022/06/23 01:17:04;;;;;;;;;;;19.90;55.90;;;;;;5168218;27;19923;-46
2022/06/23 01:19:35;;;;;;;;;;;19.80;55.30;;;;;;5162769;27;19929;-47
2022/06/23 01:22:02;;;;;;;;;;;19.90;55.30;;;;;;5162768;27;20478;-48
2022/06/23 01:24:47;;;;;;;;;;;20.60;61.80;;;;;;5166052;27;20014;-50
2022/06/23 01:27:13;;;;;;;;;;;21.30;64.20;;;;;;5142359;27;19923;-49
2022/06/23 01:29:40;;;;;;;;;;;21.80;64.00;;;;;;5164483;27;20218;-59
2022/06/23 01:32:21;;;;;;;;;;;21.00;60.60;;;;;;5148906;27;19929;-45
2022/06/23 01:34:51;;;;;;;;;;;20.50;58.50;;;;;;5162717;27;20426;-44
2022/06/23 01:37:23;;;;;;;;;;;20.30;57.10;;;;;;5167148;27;19961;-52
2022/06/23 01:39:52;;;;;;;;;;;20.10;55.90;;;;;;5166632;27;20025;-47
2022/06/23 01:42:22;;;;;;;;;;;19.80;55.00;;;;;;5160705;27;19933;-48
2022/06/23 01:44:50;;;;;;;;;;;20.10;58.80;;;;;;5148742;27;20013;-49
2022/06/23 01:47:23;;;;;;;;;;;20.80;63.90;;;;;;5162103;27;19937;-46
2022/06/23 01:49:50;;;;;;;;;;;21.50;64.80;;;;;;5143390;27;19953;-47
2022/06/23 01:52:17;;;;;;;;;;;21.60;62.70;;;;;;5149417;27;19923;-46
2022/06/23 01:54:43;;;;;;;;;;;20.90;59.60;;;;;;5144329;27;19927;-46
2022/06/23 01:57:28;;;;;;;;;;;20.60;57.70;;;;;;5162247;27;19991;-48
2022/06/23 02:00:00;;;;;;;;;;;20.20;56.70;;;;;;5166662;27;19922;-45
2022/06/23 02:02:28;;;;;;;;;;;19.90;55.90;;;;;;5142672;27;19927;-46
2022/06/23 02:04:59;;;;;;;;;;;20.00;55.00;;;;;;5162032;27;20509;-45
2022/06/23 02:07:29;;;;;;;;;;;19.80;55.60;;;;;;5167763;27;19927;-47
2022/06/23 02:09:59;;;;;;;;;;;20.50;62.10;;;;;;5162427;27;19922;-47
2022/06/23 02:12:28;;;;;;;;;;;21.30;63.90;;;;;;5143856;27;20030;-45
2022/06/23 02:14:56;;;;;;;;;;;21.40;62.50;;;;;;5171667;27;19945;-47
2022/06/23 02:17:27;;;;;;;;;;;20.80;59.10;;;;;;5147318;27;20511;-48
2022/06/23 02:19:53;;;;;;;;;;;20.40;57.80;;;;;;5168260;27;19975;-53
2022/06/23 02:22:21;;;;;;;;;;;20.30;56.10;;;;;;5167641;27;19923;-46
2022/06/23 02:24:49;;;;;;;;;;;20.10;55.60;;;;;;5146057;27;19991;-48
2022/06/23 02:27:17;;;;;;;;;;;19.80;55.10;;;;;;5171749;27;19926;-46
2022/06/23 02:30:00;;;;;;;;;;;19.90;57.80;;;;;;5165913;27;19974;-46
2022/06/23 02:32:40;;;;;;;;;;;20.70;63.20;;;;;;5166531;27;20369;-46
2022/06/23 02:35:17;;;;;;;;;;;21.40;64.40;;;;;;5171571;27;20442;-47
2022/06/23 02:37:43;;;;;;;;;;;21.40;61.90;;;;;;5163500;27;19926;-47
2022/06/23 02:40:14;;;;;;;;;;;20.80;59.10;;;;;;5165020;27;19937;-47
2022/06/23 02:42:39;;;;;;;;;;;20.40;57.30;;;;;;5171186;27;20029;-45
2022/06/23 02:45:24;;;;;;;;;;;20.10;56.30;;;;;;5165802;27;19923;-45
2022/06/23 02:47:56;;;;;;;;;;;19.90;55.30;;;;;;5165659;27;19923;-46
2022/06/23 02:50:27;;;;;;;;;;;19.90;54.80;;;;;;5171508;27;19923;-46
2022/06/23 02:52:53;;;;;;;;;;;20.40;60.20;;;;;;5147373;27;19923;-47
2022/06/23 02:55:37;;;;;;;;;;;21.10;63.70;;;;;;5164161;27;20331;-48
2022/06/23 02:58:14;;;;;;;;;;;21.60;64.40;;;;;;5151527;27;20323;-49
2022/06/23 03:00:39;;;;;;;;;;;20.90;60.10;;;;;;5165437;27;19923;-46
2022/06/23 03:03:11;;;;;;;;;;;20.40;58.10;;;;;;5165359;27;19929;-48
2022/06/23 03:05:55;;;;;;;;;;;20.20;56.60;;;;;;5170918;27;19923;-48
2022/06/23 03:08:32;;;;;;;;;;;20.00;55.60;;;;;;5165860;27;20321;-45
2022/06/23 03:10:59;;;;;;;;;;;20.00;54.70;;;;;;5165235;27;19923;-47
2022/06/23 03:13:25;;;;;;;;;;;19.70;56.50;;;;;;5169394;27;19978;-48
2022/06/23 03:15:50;;;;;;;;;;;20.60;61.50;;;;;;5164031;27;19923;-49
2022/06/23 03:18:21;;;;;;;;;;;21.30;63.50;;;;;;5164900;27;19996;-46
2022/06/23 03:20:55;;;;;;;;;;;21.60;62.90;;;;;;5170306;27;19923;-45
2022/06/23 03:23:29;;;;;;;;;;;20.80;60.00;;;;;;5146418;27;19923;-46
2022/06/23 03:25:59;;;;;;;;;;;20.30;57.70;;;;;;5165271;27;19926;-46
2022/06/23 03:28:26;;;;;;;;;;;19.90;56.60;;;;;;5151816;27;19940;-46
2022/06/23 03:30:51;;;;;;;;;;;19.90;55.60;;;;;;5164787;27;19927;-46
2022/06/23 03:33:22;;;;;;;;;;;19.90;54.50;;;;;;5168433;27;19933;-47
2022/06/23 03:36:01;;;;;;;;;;;20.00;59.60;;;;;;5164905;27;19949;-47
2022/06/23 03:41:36;;;;;;;;;;;21.60;64.10;;;;;;5164576;27;19922;-48
2022/06/23 03:44:04;;;;;;;;;;;21.20;60.60;;;;;;5170188;27;19922;-46
2022/06/23 03:46:35;;;;;;;;;;;20.60;58.00;;;;;;5145386;27;19937;-46
2022/06/23 03:49:07;;;;;;;;;;;20.10;56.60;;;;;;5146780;27;19926;-56
2022/06/23 03:51:52;;;;;;;;;;;20.00;55.60;;;;;;5131881;27;19923;-46
2022/06/23 03:54:28;;;;;;;;;;;20.00;54.60;;;;;;5163840;27;20296;-45
2022/06/23 03:56:59;;;;;;;;;;;19.70;54.60;;;;;;5145441;27;20303;-46
2022/06/23 03:59:29;;;;;;;;;;;19.90;53.90;;;;;;5169863;27;20370;-47
2022/06/23 04:02:13;;;;;;;;;;;19.80;53.70;;;;;;5145819;27;19922;-50
2022/06/23 04:04:44;;;;;;;;;;;19.90;57.30;;;;;;5164329;27;19922;-48
2022/06/23 04:07:28;;;;;;;;;;;20.70;62.80;;;;;;5149502;27;20021;-48
2022/06/23 04:10:24;;;;;;;;;;;21.30;63.90;;;;;;5161945;27;20021;-48
2022/06/23 04:12:51;;;;;;;;;;;21.70;62.50;;;;;;5140264;27;20334;-47
2022/06/23 04:15:21;;;;;;;;;;;20.80;59.20;;;;;;5169368;27;20037;-46
2022/06/23 04:17:48;;;;;;;;;;;20.30;57.70;;;;;;5164126;27;19933;-47
2022/06/23 04:20:14;;;;;;;;;;;20.00;56.30;;;;;;5145150;27;19926;-47
2022/06/23 04:22:45;;;;;;;;;;;20.00;54.70;;;;;;5169553;27;19929;-46
2022/06/23 04:25:12;;;;;;;;;;;19.80;54.50;;;;;;5163837;27;20274;-50
2022/06/23 04:27:43;;;;;;;;;;;20.30;59.70;;;;;;5165405;27;20864;-57
2022/06/23 04:30:20;;;;;;;;;;;20.90;63.30;;;;;;5167577;27;20416;-45
2022/06/23 04:32:47;;;;;;;;;;;21.60;64.10;;;;;;5163202;27;20005;-48
2022/06/23 04:35:16;;;;;;;;;;;21.10;60.80;;;;;;5148709;27;20302;-50
2022/06/23 04:37:45;;;;;;;;;;;20.50;58.70;;;;;;5145083;27;20293;-45
2022/06/23 04:40:14;;;;;;;;;;;20.20;56.90;;;;;;5164015;27;19929;-44
2022/06/23 04:42:43;;;;;;;;;;;20.00;55.90;;;;;;5169111;27;20290;-46
2022/06/23 04:45:27;;;;;;;;;;;19.80;55.40;;;;;;5162137;27;19923;-45
2022/06/23 04:47:53;;;;;;;;;;;19.80;54.70;;;;;;5143389;27;19922;-46
2022/06/23 04:50:30;;;;;;;;;;;20.50;61.70;;;;;;5168335;27;19930;-47
2022/06/23 04:52:56;;;;;;;;;;;21.20;64.00;;;;;;5163188;27;19929;-46
2022/06/23 04:55:28;;;;;;;;;;;21.70;62.60;;;;;;5144713;27;19931;-51
2022/06/23 04:58:03;;;;;;;;;;;20.90;59.90;;;;;;5150244;27;19929;-49
2022/06/23 05:00:47;;;;;;;;;;;20.50;57.50;;;;;;5163160;27;19927;-47
2022/06/23 05:03:14;;;;;;;;;;;20.20;56.20;;;;;;5162400;27;19923;-47
2022/06/23 05:05:40;;;;;;;;;;;19.80;55.60;;;;;;5148138;27;19927;-47
2022/06/23 05:08:07;;;;;;;;;;;20.00;54.40;;;;;;5162604;27;19933;-46
2022/06/23 05:10:34;;;;;;;;;;;20.00;56.30;;;;;;5162849;27;20282;-48
2022/06/23 05:13:07;;;;;;;;;;;20.70;62.40;;;;;;5150077;27;19923;-47
2022/06/23 05:15:43;;;;;;;;;;;21.30;63.80;;;;;;5144302;27;19954;-46
2022/06/23 05:18:09;;;;;;;;;;;21.40;61.90;;;;;;5162859;27;20309;-46
2022/06/23 05:20:47;;;;;;;;;;;20.60;59.20;;;;;;5149588;27;19958;-49
2022/06/23 05:23:17;;;;;;;;;;;20.30;57.30;;;;;;5160602;27;19927;-45
2022/06/23 05:25:44;;;;;;;;;;;19.90;56.30;;;;;;5165174;27;19927;-54
2022/06/23 05:28:17;;;;;;;;;;;19.90;55.20;;;;;;5146547;27;19950;-46
2022/06/23 05:30:59;;;;;;;;;;;19.80;54.70;;;;;;5162909;27;19926;-47
2022/06/23 05:33:27;;;;;;;;;;;20.50;61.60;;;;;;5166858;27;20071;-57
2022/06/23 05:36:03;;;;;;;;;;;21.30;63.90;;;;;;5165364;27;20362;-46
2022/06/23 05:38:38;;;;;;;;;;;21.70;63.00;;;;;;5162647;27;20878;-44
2022/06/23 05:41:06;;;;;;;;;;;20.80;59.90;;;;;;5166421;27;19970;-49
2022/06/23 05:43:33;;;;;;;;;;;20.40;58.10;;;;;;5141414;27;20033;-46
2022/06/23 05:46:00;;;;;;;;;;;20.30;55.90;;;;;;5143999;27;19923;-48
2022/06/23 05:48:31;;;;;;;;;;;20.00;55.50;;;;;;5171688;27;20373;-47
2022/06/23 05:51:07;;;;;;;;;;;19.80;55.60;;;;;;5148178;27;19930;-46
2022/06/23 05:53:34;;;;;;;;;;;19.90;57.00;;;;;;5148407;27;20014;-46
2022/06/23 05:56:02;;;;;;;;;;;20.80;62.70;;;;;;5171992;27;20017;-47
2022/06/23 05:58:41;;;;;;;;;;;21.40;63.70;;;;;;5146641;27;20376;-45
2022/06/23 06:01:24;;;;;;;;;;;21.50;61.50;;;;;;5146859;27;19927;-46
2022/06/23 06:03:59;;;;;;;;;;;20.80;59.10;;;;;;5153264;27;19929;-46
2022/06/23 06:06:25;;;;;;;;;;;20.50;56.80;;;;;;5166259;27;19970;-46
2022/06/23 06:11:37;;;;;;;;;;;20.10;55.10;;;;;;5172432;27;19929;-46
2022/06/23 06:14:03;;;;;;;;;;;19.90;54.50;;;;;;5166394;27;19936;-46
2022/06/23 06:16:28;;;;;;;;;;;20.00;57.30;;;;;;5165672;27;19942;-46
2022/06/23 06:18:54;;;;;;;;;;;20.80;62.30;;;;;;5170041;27;20401;-48
2022/06/23 06:21:21;;;;;;;;;;;21.50;63.60;;;;;;5166126;27;19926;-48
2022/06/23 06:24:03;;;;;;;;;;;21.50;61.90;;;;;;5169070;27;19944;-55
2022/06/23 06:26:30;;;;;;;;;;;20.80;59.30;;;;;;5152338;27;20013;-47
2022/06/23 06:28:57;;;;;;;;;;;20.50;56.80;;;;;;5165940;27;19929;-44
2022/06/23 06:31:25;;;;;;;;;;;20.20;56.10;;;;;;5153067;27;19923;-45
2022/06/23 06:33:51;;;;;;;;;;;20.00;55.20;;;;;;5166195;27;19929;-45
2022/06/23 06:36:46;;;;;;;;;;;20.00;54.30;;;;;;5163675;27;20366;-49
2022/06/23 06:39:13;;;;;;;;;;;20.20;57.80;;;;;;5147341;27;20410;-54
2022/06/23 06:41:41;;;;;;;;;;;21.00;63.60;;;;;;5167709;27;19923;-50
2022/06/23 06:44:07;;;;;;;;;;;21.60;64.20;;;;;;5145250;27;19926;-46
2022/06/23 06:46:32;;;;;;;;;;;21.30;61.40;;;;;;5152538;27;19971;-45
2022/06/23 06:48:58;;;;;;;;;;;20.80;59.00;;;;;;5147211;27;19934;-46
2022/06/23 06:51:25;;;;;;;;;;;20.70;57.10;;;;;;5165530;27;19923;-46
2022/06/23 06:54:04;;;;;;;;;;;20.30;55.90;;;;;;5169659;27;20282;-46
2022/06/23 06:56:39;;;;;;;;;;;20.00;55.80;;;;;;5144654;27;19930;-45
2022/06/23 06:59:08;;;;;;;;;;;20.00;55.10;;;;;;5164514;27;19930;-47
2022/06/23 07:01:35;;;;;;;;;;;19.80;56.50;;;;;;5170791;27;19922;-50
2022/06/23 07:04:01;;;;;;;;;;;20.70;61.40;;;;;;5165368;27;20510;-44
2022/06/23 07:06:37;;;;;;;;;;;21.30;63.60;;;;;;5166559;27;19927;-55
2022/06/23 07:09:05;;;;;;;;;;;21.60;61.90;;;;;;5170844;27;19926;-46
2022/06/23 07:11:37;;;;;;;;;;;20.70;59.30;;;;;;5164934;27;20050;-48
2022/06/23 07:14:11;;;;;;;;;;;20.40;57.70;;;;;;5167966;27;20381;-53
2022/06/23 07:16:40;;;;;;;;;;;20.30;55.70;;;;;;5150071;27;20369;-45
2022/06/23 07:19:14;;;;;;;;;;;19.90;55.70;;;;;;5145928;27;19967;-48
2022/06/23 07:21:42;;;;;;;;;;;19.80;55.10;;;;;;5152010;27;20432;-46
2022/06/23 07:24:15;;;;;;;;;;;19.80;56.10;;;;;;5164988;27;20427;-47
2022/06/23 07:26:43;;;;;;;;;;;20.60;61.70;;;;;;5160946;27;19922;-51
2022/06/23 07:29:39;;;;;;;;;;;21.30;63.60;;;;;;5151879;27;19923;-48
2022/06/23 07:32:13;;;;;;;;;;;21.70;62.40;;;;;;5148443;27;19933;-46
2022/06/23 07:34:41;;;;;;;;;;;20.80;58.90;;;;;;5145041;27;20400;-48
2022/06/23 07:37:12;;;;;;;;;;;20.40;57.20;;;;;;5170021;27;20033;-49
2022/06/23 07:39:38;;;;;;;;;;;20.10;56.70;;;;;;5164682;27;20066;-46
2022/06/23 07:42:12;;;;;;;;;;;20.10;55.30;;;;;;5146016;27;19923;-45
2022/06/23 07:44:45;;;;;;;;;;;19.90;55.40;;;;;;5151628;27;20025;-47
2022/06/23 07:47:11;;;;;;;;;;;19.80;55.80;;;;;;5164539;27;20035;-45
2022/06/23 07:49:37;;;;;;;;;;;20.80;61.20;;;;;;5162636;27;19930;-46
2022/06/23 07:52:02;;;;;;;;;;;21.30;63.50;;;;;;5168829;27;19923;-46
2022/06/23 07:54:28;;;;;;;;;;;21.50;61.80;;;;;;5164313;27;20011;-46
2022/06/23 07:56:54;;;;;;;;;;;20.90;59.20;;;;;;5145220;27;19976;-47
2022/06/23 07:59:26;;;;;;;;;;;20.50;57.30;;;;;;5131362;27;19930;-49
2022/06/23 08:02:00;;;;;;;;;;;20.40;56.00;;;;;;5123350;27;19924;-44
2022/06/23 08:04:28;;;;;;;;;;;20.10;55.40;;;;;;5146324;27;20390;-54
2022/06/23 08:06:54;;;;;;;;;;;19.90;55.40;;;;;;5145951;27;19957;-48
2022/06/23 08:09:40;;;;;;;;;;;20.00;54.30;;;;;;5141859;27;20063;-47
2022/06/23 08:14:50;;;;;;;;;;;21.20;63.90;;;;;;5148641;27;19930;-50
2022/06/23 08:17:16;;;;;;;;;;;21.80;62.60;;;;;;5142920;27;19927;-47
2022/06/23 08:19:47;;;;;;;;;;;21.20;59.80;;;;;;5148547;27;19929;-47
2022/06/23 08:22:22;;;;;;;;;;;20.80;57.40;;;;;;5142878;27;19923;-47
2022/06/23 08:24:49;;;;;;;;;;;20.40;57.20;;;;;;5124146;27;19923;-48
2022/06/23 08:27:18;;;;;;;;;;;20.40;55.50;;;;;;5128113;27;19999;-46
2022/06/23 08:29:48;;;;;;;;;;;20.10;54.90;;;;;;5142514;27;19927;-46
2022/06/23 08:32:15;;;;;;;;;;;20.00;54.30;;;;;;5124161;27;19923;-48
2022/06/23 08:34:51;;;;;;;;;;;20.00;54.20;;;;;;5148296;27;20014;-47
2022/06/23 08:37:20;;;;;;;;;;;20.60;60.60;;;;;;5123882;27;21364;-48
2022/06/23 08:39:48;;;;;;;;;;;21.30;63.00;;;;;;5142993;27;20913;-48
2022/06/23 08:42:19;;;;;;;;;;;21.60;62.40;;;;;;5128684;27;20272;-46
2022/06/23 08:45:01;;;;;;;;;;;21.00;59.40;;;;;;5121554;27;19923;-49
2022/06/23 08:47:48;;;;;;;;;;;20.70;57.30;;;;;;5122052;27;20288;-46
2022/06/23 08:50:17;;;;;;;;;;;20.40;55.80;;;;;;5147486;27;20287;-47
2022/06/23 08:52:47;;;;;;;;;;;20.20;55.30;;;;;;5142634;27;19934;-50
2022/06/23 08:55:27;;;;;;;;;;;20.00;54.70;;;;;;5142596;27;19931;-50
2022/06/23 08:57:56;;;;;;;;;;;20.00;54.20;;;;;;5129557;27;20301;-44
2022/06/23 09:00:31;;;;;;;;;;;19.90;53.90;;;;;;5123726;27;19923;-49
2022/06/23 09:03:05;;;;;;;;;;;19.80;53.70;;;;;;5140862;27;20144;-53
2022/06/23 09:05:36;;;;;;;;;;;19.90;53.20;;;;;;5146577;27;19930;-47
2022/06/23 09:08:35;;;;;;;;;;;20.20;59.30;;;;;;5141769;27;19943;-45
2022/06/23 09:11:21;;;;;;;;;;;20.90;62.30;;;;;;5084023;27;19931;-50
2022/06/23 09:14:02;;;;;;;;;;;21.80;62.50;;;;;;5147130;27;19923;-51
2022/06/23 09:16:30;;;;;;;;;;;21.30;60.30;;;;;;5124179;27;19934;-50
2022/06/23 09:19:15;;;;;;;;;;;20.80;57.80;;;;;;5142112;27;19923;-48
2022/06/23 09:22:00;;;;;;;;;;;20.50;56.30;;;;;;5144980;27;19931;-49
2022/06/23 09:24:29;;;;;;;;;;;20.20;55.90;;;;;;5146715;27;19923;-47
2022/06/23 09:26:57;;;;;;;;;;;20.20;54.60;;;;;;5141397;27;20079;-49
2022/06/23 09:29:39;;;;;;;;;;;19.90;54.60;;;;;;5147246;27;19933;-49
2022/06/23 09:32:15;;;;;;;;;;;20.00;53.70;;;;;;5127030;27;20392;-49
2022/06/23 09:34:53;;;;;;;;;;;19.90;53.70;;;;;;5142108;27;20014;-47
2022/06/23 09:37:38;;;;;;;;;;;19.90;53.40;;;;;;5145541;27;20014;-56
2022/06/23 09:40:22;;;;;;;;;;;20.40;60.40;;;;;;5144746;27;19933;-53
2022/06/23 09:42:51;;;;;;;;;;;21.20;62.70;;;;;;5140648;27;20333;-47
2022/06/23 09:45:36;;;;;;;;;;;21.80;62.50;;;;;;5141395;27;19923;-47
2022/06/23 09:48:08;;;;;;;;;;;21.30;59.50;;;;;;5147133;27;19926;-48
2022/06/23 09:50:37;;;;;;;;;;;20.80;57.00;;;;;;5123185;27;20342;-47
2022/06/23 09:53:11;;;;;;;;;;;20.50;56.40;;;;;;5141816;27;20358;-50
2022/06/23 09:55:55;;;;;;;;;;;20.30;55.00;;;;;;5128592;27;19927;-47
2022/06/23 09:58:40;;;;;;;;;;;20.30;54.20;;;;;;5139478;27;20042;-47
2022/06/23 10:01:10;;;;;;;;;;;20.10;53.90;;;;;;5122200;27;19922;-51
2022/06/23 10:03:52;;;;;;;;;;;20.00;53.60;;;;;;5128082;27;19930;-46
2022/06/23 10:06:37;;;;;;;;;;;20.00;53.70;;;;;;5141559;27;19923;-50
2022/06/23 10:09:09;;;;;;;;;;;20.10;53.00;;;;;;5141441;27;19929;-46
2022/06/23 10:11:54;;;;;;;;;;;20.30;58.70;;;;;;5128751;27;19975;-50
2022/06/23 10:14:29;;;;;;;;;;;21.00;61.80;;;;;;5141665;27;19976;-46
2022/06/23 10:16:54;;;;;;;;;;;21.80;62.10;;;;;;5139284;27;19923;-47
2022/06/23 10:19:21;;;;;;;;;;;21.50;59.60;;;;;;5146077;27;19923;-52
2022/06/23 10:21:46;;;;;;;;;;;21.00;57.70;;;;;;5141111;27;20445;-50
2022/06/23 10:24:15;;;;;;;;;;;20.50;56.40;;;;;;5122848;27;20083;-47
2022/06/23 10:26:41;;;;;;;;;;;20.50;55.20;;;;;;5146712;27;19967;-47
2022/06/23 10:29:13;;;;;;;;;;;20.30;54.70;;;;;;5141554;27;19936;-51
2022/06/23 10:31:50;;;;;;;;;;;20.30;54.20;;;;;;5122366;27;20379;-52
2022/06/23 10:34:19;;;;;;;;;;;20.30;53.60;;;;;;5128325;27;20430;-48
2022/06/23 10:36:57;;;;;;;;;;;20.40;56.80;;;;;;5143477;27;19923;-47
2022/06/23 10:39:22;;;;;;;;;;;21.10;61.30;;;;;;5126023;27;19923;-55
2022/06/23 10:42:07;;;;;;;;;;;21.70;62.30;;;;;;5130910;27;19930;-47
2022/06/23 10:44:57;;;;;;;;;;;21.20;59.50;;;;;;5144960;27;20018;-50
2022/06/23 10:47:35;;;;;;;;;;;20.80;57.40;;;;;;5126628;27;19927;-45
2022/06/23 10:50:11;;;;;;;;;;;20.40;56.10;;;;;;5131511;27;20431;-47
2022/06/23 10:52:52;;;;;;;;;;;20.40;54.90;;;;;;5143431;27;20014;-44
2022/06/23 10:55:22;;;;;;;;;;;20.30;54.60;;;;;;5143320;27;19970;-45
2022/06/23 10:58:07;;;;;;;;;;;20.10;54.10;;;;;;5148554;27;20396;-46
2022/06/23 11:00:52;;;;;;;;;;;20.20;53.80;;;;;;5144486;27;19942;-50
2022/06/23 11:03:41;;;;;;;;;;;20.10;53.30;;;;;;5144716;27;19968;-52
2022/06/23 11:06:09;;;;;;;;;;;20.00;53.40;;;;;;5101803;27;19923;-52
2022/06/23 11:08:38;;;;;;;;;;;20.20;57.70;;;;;;5144334;27;19937;-51
2022/06/23 11:11:13;;;;;;;;;;;20.90;61.30;;;;;;5143489;27;19923;-45
2022/06/23 11:13:45;;;;;;;;;;;21.60;61.40;;;;;;5130280;27;19923;-48
2022/06/23 11:16:30;;;;;;;;;;;21.70;59.50;;;;;;5144013;27;19957;-46
2022/06/23 11:19:02;;;;;;;;;;;20.90;57.60;;;;;;5144025;27;19967;-48
2022/06/23 11:21:27;;;;;;;;;;;20.70;56.10;;;;;;5130122;27;19963;-45
2022/06/23 11:23:53;;;;;;;;;;;20.50;55.10;;;;;;5144596;27;19930;-45
2022/06/23 11:26:37;;;;;;;;;;;20.40;54.30;;;;;;5144123;27;20311;-43
2022/06/23 11:29:12;;;;;;;;;;;20.30;53.80;;;;;;5148617;27;19949;-45
2022/06/23 11:31:44;;;;;;;;;;;20.20;53.60;;;;;;5142819;27;19945;-46
2022/06/23 11:34:28;;;;;;;;;;;20.10;53.40;;;;;;5121611;27;19930;-44
2022/06/23 11:37:13;;;;;;;;;;;20.00;53.20;;;;;;5149188;27;20059;-48
2022/06/23 11:39:57;;;;;;;;;;;20.00;55.50;;;;;;5144065;27;20371;-46
2022/06/23 11:42:26;;;;;;;;;;;20.80;60.40;;;;;;5144126;27;20006;-47
2022/06/23 11:44:52;;;;;;;;;;;21.60;60.90;;;;;;5131264;27;20298;-47
2022/06/23 11:47:24;;;;;;;;;;;21.80;59.60;;;;;;5163581;27;19923;-48
2022/06/23 11:49:53;;;;;;;;;;;20.90;57.90;;;;;;5144557;27;19923;-47
2022/06/23 11:52:23;;;;;;;;;;;20.70;56.40;;;;;;5169525;27;19931;-49
2022/06/23 11:55:04;;;;;;;;;;;20.60;54.80;;;;;;5127746;27;20954;-48
2022/06/23 11:57:39;;;;;;;;;;;20.40;54.40;;;;;;5164509;27;19929;-46
2022/06/23 12:00:13;;;;;;;;;;;20.30;54.00;;;;;;5169647;27;19937;-46
2022/06/23 12:02:52;;;;;;;;;;;20.10;53.90;;;;;;5164164;27;20024;-49
2022/06/23 12:05:22;;;;;;;;;;;20.20;53.60;;;;;;5145018;27;19927;-45
2022/06/23 12:07:58;;;;;;;;;;;20.20;53.10;;;;;;5167418;27;19923;-44
2022/06/23 12:10:25;;;;;;;;;;;20.10;52.80;;;;;;5163661;27;19929;-46
2022/06/23 12:12:52;;;;;;;;;;;20.20;57.40;;;;;;5163537;27;20449;-46
2022/06/23 12:15:32;;;;;;;;;;;21.00;60.30;;;;;;5169586;27;20632;-45
2022/06/23 12:17:59;;;;;;;;;;;21.60;60.90;;;;;;5143524;27;19934;-44
2022/06/23 12:20:27;;;;;;;;;;;21.50;58.80;;;;;;5164030;27;20128;-44
2022/06/23 12:22:56;;;;;;;;;;;20.80;57.40;;;;;;5150690;27;19923;-44
2022/06/23 12:25:45;;;;;;;;;;;20.60;56.00;;;;;;5161883;27;19934;-49
2022/06/23 12:28:15;;;;;;;;;;;20.60;55.00;;;;;;5144091;27;19926;-47
2022/06/23 12:30:55;;;;;;;;;;;20.50;54.20;;;;;;5150176;27;19922;-46
2022/06/23 12:33:33;;;;;;;;;;;20.40;53.90;;;;;;5145117;27;19946;-47
2022/06/23 12:36:10;;;;;;;;;;;20.30;53.70;;;;;;5145228;27;19930;-46
2022/06/23 12:38:38;;;;;;;;;;;20.10;53.50;;;;;;5150581;27;19934;-47
2022/06/23 12:41:10;;;;;;;;;;;20.10;53.10;;;;;;5163752;27;20296;-47
2022/06/23 12:43:54;;;;;;;;;;;20.10;52.70;;;;;;5161733;27;20013;-47
2022/06/23 12:46:26;;;;;;;;;;;20.20;57.10;;;;;;5168027;27;20005;-48
2022/06/23 12:49:11;;;;;;;;;;;21.00;60.30;;;;;;5144523;27;19922;-47
2022/06/23 12:51:43;;;;;;;;;;;21.70;60.50;;;;;;5163271;27;19923;-45
2022/06/23 12:54:28;;;;;;;;;;;21.50;58.50;;;;;;5168793;27;19922;-47
2022/06/23 12:56:53;;;;;;;;;;;21.00;56.70;;;;;;5144386;27;19923;-44
2022/06/23 12:59:32;;;;;;;;;;;20.80;55.10;;;;;;5142843;27;20293;-46
2022/06/23 13:02:04;;;;;;;;;;;20.50;54.40;;;;;;5166741;27;19970;-47
2022/06/23 13:04:32;;;;;;;;;;;20.30;54.00;;;;;;5143357;27;19923;-47
2022/06/23 13:07:04;;;;;;;;;;;20.20;53.80;;;;;;5127026;27;20025;-45
2022/06/23 13:09:30;;;;;;;;;;;20.00;53.70;;;;;;5149773;27;19927;-46
2022/06/23 13:11:56;;;;;;;;;;;20.20;53.10;;;;;;5162917;27;19931;-45
2022/06/23 13:14:23;;;;;;;;;;;20.20;53.10;;;;;;5163581;27;19967;-46
2022/06/23 13:16:52;;;;;;;;;;;20.00;53.80;;;;;;5168568;27;19923;-46
2022/06/23 13:19:22;;;;;;;;;;;20.80;58.50;;;;;;5143201;27;19927;-47
2022/06/23 13:21:48;;;;;;;;;;;21.50;60.10;;;;;;5146207;27;20305;-48
2022/06/23 13:24:17;;;;;;;;;;;21.90;59.20;;;;;;5162351;27;19970;-47
2022/06/23 13:26:51;;;;;;;;;;;21.10;57.60;;;;;;5162346;27;20386;-49
2022/06/23 13:29:18;;;;;;;;;;;20.90;55.60;;;;;;5168284;27;20243;-45
2022/06/23 13:31:48;;;;;;;;;;;20.70;54.80;;;;;;5162687;27;19930;-46
2022/06/23 13:34:27;;;;;;;;;;;20.50;54.30;;;;;;5143926;27;20860;-46
2022/06/23 13:36:56;;;;;;;;;;;20.30;53.90;;;;;;5150094;27;19929;-48
2022/06/23 13:39:42;;;;;;;;;;;20.30;53.50;;;;;;5160619;27;19931;-48
2022/06/23 13:42:23;;;;;;;;;;;20.20;53.60;;;;;;5108632;27;19923;-44
2022/06/23 13:45:08;;;;;;;;;;;20.30;53.00;;;;;;5131961;27;19923;-46
2022/06/23 13:47:39;;;;;;;;;;;20.30;52.80;;;;;;5165294;27;19936;-48
2022/06/23 13:50:14;;;;;;;;;;;20.20;56.20;;;;;;5162660;27;19923;-45
2022/06/23 13:52:43;;;;;;;;;;;21.10;59.60;;;;;;5168440;27;19922;-48
2022/06/23 13:55:16;;;;;;;;;;;21.80;60.00;;;;;;5143902;27;19982;-49
2022/06/23 13:57:46;;;;;;;;;;;21.60;58.20;;;;;;5160241;27;19986;-48
2022/06/23 14:00:14;;;;;;;;;;;21.10;56.50;;;;;;5148565;27;19926;-48
2022/06/23 14:02:43;;;;;;;;;;;20.80;55.10;;;;;;5143521;27;19929;-46
2022/06/23 14:05:21;;;;;;;;;;;20.60;54.40;;;;;;5144038;27;20377;-45
2022/06/23 14:08:12;;;;;;;;;;;20.30;54.20;;;;;;5168010;27;19933;-44
2022/06/23 14:10:53;;;;;;;;;;;20.40;53.40;;;;;;5126218;27;20434;-46
2022/06/23 14:13:49;;;;;;;;;;;20.30;53.10;;;;;;5147025;27;20021;-50
2022/06/23 14:16:17;;;;;;;;;;;20.30;52.60;;;;;;5142290;27;19929;-46
2022/06/23 14:18:55;;;;;;;;;;;20.00;53.20;;;;;;5171107;27;20370;-49
2022/06/23 14:21:26;;;;;;;;;;;20.20;53.00;;;;;;5165752;27;19922;-46
2022/06/23 14:23:56;;;;;;;;;;;20.70;58.90;;;;;;5168899;27;20840;-57
2022/06/23 14:26:43;;;;;;;;;;;21.60;59.60;;;;;;5171015;27;19978;-47
2022/06/23 14:29:17;;;;;;;;;;;21.80;58.50;;;;;;5145380;27;19948;-48
2022/06/23 14:31:49;;;;;;;;;;;21.00;56.90;;;;;;5166021;27;19931;-53
2022/06/23 14:34:24;;;;;;;;;;;20.90;55.20;;;;;;5149272;27;20303;-46
2022/06/23 14:36:52;;;;;;;;;;;20.80;54.50;;;;;;5164920;27;19930;-46
2022/06/23 14:39:20;;;;;;;;;;;20.70;53.80;;;;;;5169381;27;19932;-54
2022/06/23 14:41:56;;;;;;;;;;;20.60;53.50;;;;;;5168871;27;20013;-46
2022/06/23 14:44:32;;;;;;;;;;;20.40;53.30;;;;;;5165702;27;19946;-45
2022/06/23 14:47:17;;;;;;;;;;;20.30;53.40;;;;;;5151050;27;19929;-55
2022/06/23 14:49:51;;;;;;;;;;;20.20;53.20;;;;;;5171248;27;19933;-48
2022/06/23 14:52:17;;;;;;;;;;;20.20;53.00;;;;;;5144895;27;19989;-49
2022/06/23 14:54:51;;;;;;;;;;;20.10;55.40;;;;;;5169699;27;19971;-52
2022/06/23 14:57:23;;;;;;;;;;;20.90;59.10;;;;;;5168733;27;19927;-50